Time;durP1;ratioP1;P1;durP2;ratioP2;P2;SDS_P1;SDS_P2;PMS_P1;PMS_P2;Temp;Humidity;BMP_temperature;BMP_pressure;BME280_temperature;BME280_humidity;BME280_pressure;Samples;Min_cycle;Max_cycle;Signal;HPM_P1;HPM_P2
2023/06/22 00:02:16;;;;;;;7.20;4.20;;;;;;;17.57;89.43;98120.81;6162823;28;20229;-39
2023/06/22 00:05:18;;;;;;;11.23;4.77;;;;;;;17.56;89.45;98116.53;6173250;28;20253;-38
2023/06/22 00:08:20;;;;;;;7.20;4.13;;;;;;;17.53;89.61;98119.75;6168182;28;20631;-38
2023/06/22 00:11:23;;;;;;;8.47;4.53;;;;;;;17.51;90.09;98120.03;6165173;28;20764;-39
2023/06/22 00:14:25;;;;;;;8.73;4.30;;;;;;;17.46;90.64;98122.75;6169560;28;20819;-38
2023/06/22 00:17:27;;;;;;;8.17;4.50;;;;;;;17.38;91.11;98112.53;6167543;28;20233;-38
2023/06/22 00:20:29;;;;;;;10.13;5.17;;;;;;;17.36;91.20;98116.59;6167758;28;20312;-39
2023/06/22 00:23:34;;;;;;;8.50;5.17;;;;;;;17.22;91.46;98097.53;6167435;28;20233;-38
2023/06/22 00:26:36;;;;;;;9.60;4.57;;;;;;;17.30;92.18;98115.03;6168446;28;20254;-38
2023/06/22 00:29:40;;;;;;;13.33;5.20;;;;;;;17.26;92.30;98112.88;6151467;28;21279;-37
2023/06/22 00:32:43;;;;;;;8.73;4.60;;;;;;;17.24;92.48;98106.97;6151066;28;20229;-38
2023/06/22 00:35:48;;;;;;;11.13;4.83;;;;;;;17.22;92.45;98111.78;6167123;28;20703;-38
2023/06/22 00:38:51;;;;;;;10.20;4.70;;;;;;;17.24;92.46;98106.13;6168125;28;20324;-38
2023/06/22 00:41:53;;;;;;;7.70;4.17;;;;;;;17.28;92.48;98110.69;6149984;28;20244;-38
2023/06/22 00:44:55;;;;;;;10.27;4.80;;;;;;;17.27;92.19;98114.47;6166987;28;20233;-38
2023/06/22 00:47:58;;;;;;;6.57;4.83;;;;;;;17.19;92.97;98104.28;6168565;28;20229;-37
2023/06/22 00:51:02;;;;;;;10.17;5.20;;;;;;;17.13;93.58;98110.75;6151919;28;20233;-38
2023/06/22 00:54:05;;;;;;;11.07;5.30;;;;;;;17.10;93.71;98105.91;6149361;28;20240;-39
2023/06/22 00:57:11;;;;;;;10.20;5.33;;;;;;;17.06;93.66;98106.75;6166569;28;20989;-39
2023/06/22 01:00:17;;;;;;;7.67;4.50;;;;;;;17.03;93.34;98100.81;6164234;28;20205;-38
2023/06/22 01:03:20;;;;;;;9.83;4.43;;;;;;;17.02;93.55;98101.88;6166560;28;20621;-38
2023/06/22 01:06:29;;;;;;;9.97;4.73;;;;;;;17.04;93.90;98098.91;6170154;28;20222;-38
2023/06/22 01:09:36;;;;;;;9.73;5.27;;;;;;;17.02;93.39;98098.41;6146754;28;20225;-38
2023/06/22 01:12:52;;;;;;;10.00;4.80;;;;;;;16.95;93.47;98095.19;6162372;28;21013;-38
2023/06/22 01:16:01;;;;;;;11.60;5.00;;;;;;;16.88;93.76;98092.75;6153813;28;20242;-39
2023/06/22 01:19:35;;;;;;;9.20;5.00;;;;;;;16.84;94.13;98085.50;6147820;28;20831;-38
2023/06/22 01:23:05;;;;;;;7.97;4.70;;;;;;;16.79;94.57;98083.63;6165478;28;20917;-39
2023/06/22 01:26:42;;;;;;;10.33;5.10;;;;;;;16.80;94.02;98076.38;6162240;28;20785;-38
2023/06/22 01:29:44;;;;;;;7.87;4.23;;;;;;;16.72;93.73;98064.28;6047366;29;20658;-39
2023/06/22 01:32:48;;;;;;;11.60;3.93;;;;;;;16.82;93.94;98076.91;6043952;29;20269;-39
2023/06/22 01:35:50;;;;;;;7.33;4.57;;;;;;;16.81;93.53;98091.44;6029961;29;20236;-38
2023/06/22 01:38:54;;;;;;;8.00;4.30;;;;;;;16.76;93.67;98092.25;6045956;29;20593;-39
2023/06/22 01:41:57;;;;;;;6.67;4.53;;;;;;;16.75;93.75;98083.38;6048912;29;20239;-38
2023/06/22 01:45:00;;;;;;;8.43;4.53;;;;;;;16.75;93.52;98086.09;6047436;29;20247;-38
2023/06/22 01:48:03;;;;;;;5.67;3.93;;;;;;;16.74;93.76;98079.06;6045229;29;20631;-38
2023/06/22 01:51:05;;;;;;;5.87;4.03;;;;;;;16.67;93.34;98069.66;6044601;29;20269;-38
2023/06/22 01:54:10;;;;;;;9.87;4.60;;;;;;;16.69;93.70;98084.41;6045384;29;20391;-39
2023/06/22 01:57:13;;;;;;;8.17;4.40;;;;;;;16.67;93.75;98080.41;6042084;29;20285;-38
2023/06/22 02:00:23;;;;;;;7.60;4.80;;;;;;;16.62;94.03;98077.72;6045300;29;20229;-38
2023/06/22 02:03:41;;;;;;;9.20;4.97;;;;;;;16.57;94.17;98081.22;6041526;29;20233;-38
2023/06/22 02:06:46;;;;;;;7.43;4.73;;;;;;;16.52;94.20;98090.09;6143013;28;20240;-38
2023/06/22 02:09:52;;;;;;;8.10;5.00;;;;;;;16.45;94.62;98086.88;6165630;28;20236;-38
2023/06/22 02:12:57;;;;;;;8.67;4.90;;;;;;;16.41;94.64;98074.25;6167012;28;20225;-38
2023/06/22 02:16:01;;;;;;;5.63;4.43;;;;;;;16.29;95.02;98066.44;6146474;28;20252;-38
2023/06/22 02:19:03;;;;;;;7.63;4.67;;;;;;;16.33;94.84;98074.78;6166220;28;20316;-38
2023/06/22 02:22:08;;;;;;;9.97;5.10;;;;;;;16.29;95.10;98073.69;6166851;28;20233;-38
2023/06/22 02:25:11;;;;;;;7.00;4.77;;;;;;;16.24;95.48;98078.00;6171048;28;20238;-39
2023/06/22 02:28:13;;;;;;;8.33;5.33;;;;;;;16.19;95.82;98074.50;6154759;28;20288;-38
2023/06/22 02:31:15;;;;;;;7.13;4.70;;;;;;;16.15;95.97;98065.34;6166563;28;20233;-39
2023/06/22 02:34:18;;;;;;;7.10;4.57;;;;;;;16.16;95.71;98065.09;6153428;28;20257;-38
2023/06/22 02:37:20;;;;;;;6.77;4.40;;;;;;;16.15;95.64;98059.97;6152205;28;20233;-38
2023/06/22 02:40:22;;;;;;;8.60;5.30;;;;;;;16.14;95.95;98061.88;6171618;28;20234;-38
2023/06/22 02:43:24;;;;;;;5.17;4.53;;;;;;;16.18;95.71;98072.91;6170516;28;20253;-38
2023/06/22 02:46:27;;;;;;;5.53;4.23;;;;;;;16.21;95.91;98064.31;6172256;28;20707;-39
2023/06/22 02:49:29;;;;;;;6.43;4.03;;;;;;;16.24;95.73;98066.44;6150095;28;20606;-39
2023/06/22 02:52:31;;;;;;;5.77;4.63;;;;;;;15.98;95.61;98025.31;6168296;28;20335;-39
2023/06/22 02:55:33;;;;;;;8.23;5.10;;;;;;;16.20;95.53;98068.03;6165828;28;20261;-38
2023/06/22 02:58:38;;;;;;;10.37;5.40;;;;;;;16.16;95.54;98069.69;6152759;28;20225;-39
2023/06/22 03:01:44;;;;;;;7.40;5.30;;;;;;;16.09;95.40;98069.13;6155637;28;20312;-38
2023/06/22 03:04:57;;;;;;;7.63;4.37;;;;;;;16.04;95.47;98069.91;6149282;28;20230;-38
2023/06/22 03:07:59;;;;;;;8.90;5.60;;;;;;;15.98;95.92;98061.06;6174495;28;20256;-39
2023/06/22 03:11:05;;;;;;;8.80;5.73;;;;;;;15.90;96.45;98058.88;6149627;28;20299;-38
2023/06/22 03:14:07;;;;;;;7.97;5.20;;;;;;;15.87;96.88;98061.31;6168788;28;20505;-38
2023/06/22 03:17:10;;;;;;;12.27;5.77;;;;;;;15.83;97.42;98065.59;6170445;28;20283;-38
2023/06/22 03:20:13;;;;;;;6.90;4.93;;;;;;;15.82;97.20;98072.06;6158518;28;20642;-38
2023/06/22 03:23:15;;;;;;;13.13;5.77;;;;;;;15.71;97.42;98050.53;6152421;28;20240;-38
2023/06/22 03:26:18;;;;;;;7.57;5.93;;;;;;;15.78;97.08;98055.66;6149554;28;20228;-38
2023/06/22 03:29:21;;;;;;;11.67;4.83;;;;;;;15.78;97.54;98058.34;6174437;28;20225;-38
2023/06/22 03:32:24;;;;;;;8.60;6.07;;;;;;;15.78;98.11;98058.34;6151441;28;20610;-38
2023/06/22 03:35:26;;;;;;;8.10;5.57;;;;;;;15.83;98.24;98049.47;6169474;28;20237;-38
2023/06/22 03:38:29;;;;;;;10.37;5.90;;;;;;;15.89;98.22;98054.59;6153579;28;20237;-38
2023/06/22 03:41:32;;;;;;;7.53;5.20;;;;;;;15.93;98.00;98054.88;6145406;28;20721;-38
2023/06/22 03:44:36;;;;;;;6.97;4.60;;;;;;;15.98;97.78;98052.19;6150259;28;20785;-38
2023/06/22 03:47:41;;;;;;;6.80;5.03;;;;;;;16.05;97.89;98057.28;6169955;28;20729;-38
2023/06/22 03:50:43;;;;;;;6.40;4.57;;;;;;;16.11;97.91;98067.78;6136821;28;20623;-39
2023/06/22 03:53:46;;;;;;;8.07;4.43;;;;;;;16.13;97.61;98076.38;6171787;28;20702;-39
2023/06/22 03:56:48;;;;;;;7.67;5.00;;;;;;;16.15;97.56;98065.34;6165000;28;20225;-38
2023/06/22 03:59:50;;;;;;;8.17;5.20;;;;;;;16.15;97.43;98076.91;6168547;28;20225;-38
2023/06/22 04:02:52;;;;;;;7.70;5.33;;;;;;;16.14;97.23;98063.75;6167665;28;20647;-38
2023/06/22 04:05:56;;;;;;;7.10;5.70;;;;;;;16.11;97.62;98054.34;6164825;28;20711;-38
2023/06/22 04:08:58;;;;;;;9.50;5.17;;;;;;;16.13;97.79;98049.50;6169120;28;20237;-38
2023/06/22 04:12:01;;;;;;;10.00;5.80;;;;;;;16.16;97.57;98045.50;6172042;28;20724;-39
2023/06/22 04:15:04;;;;;;;11.07;5.70;;;;;;;16.17;97.64;98039.84;6162068;28;20257;-38
2023/06/22 04:18:06;;;;;;;7.40;5.23;;;;;;;16.18;97.70;98030.69;6165503;28;20241;-38
2023/06/22 04:21:08;;;;;;;7.03;4.97;;;;;;;16.22;98.08;98028.28;6169556;28;20698;-38
2023/06/22 04:24:11;;;;;;;7.07;4.97;;;;;;;16.27;97.93;98024.78;6169658;28;20228;-38
2023/06/22 04:27:13;;;;;;;6.70;4.47;;;;;;;16.33;98.07;98027.19;6169739;28;20217;-39
2023/06/22 04:30:16;;;;;;;5.43;4.23;;;;;;;16.39;98.12;98036.84;6169678;28;20228;-38
2023/06/22 04:33:18;;;;;;;6.53;5.07;;;;;;;16.42;97.68;98024.75;6167906;28;20228;-38
2023/06/22 04:36:20;;;;;;;5.33;4.83;;;;;;;16.50;97.92;98037.63;6168734;28;20716;-38
2023/06/22 04:39:26;;;;;;;10.57;5.53;;;;;;;16.47;97.88;98030.13;6167112;28;20606;-38
2023/06/22 04:42:29;;;;;;;8.07;5.10;;;;;;;16.56;98.13;98044.66;6169861;28;20245;-39
2023/06/22 04:45:31;;;;;;;12.17;6.10;;;;;;;16.58;98.61;98039.00;6166885;28;20653;-39
2023/06/22 04:48:33;;;;;;;7.70;5.43;;;;;;;16.61;99.17;98043.84;6162737;28;20799;-39
2023/06/22 04:51:41;;;;;;;9.10;5.90;;;;;;;16.63;99.49;98042.47;6165816;28;20238;-38
2023/06/22 04:54:50;;;;;;;9.20;5.50;;;;;;;16.63;100.00;98029.03;6151477;28;20790;-39
2023/06/22 04:57:52;;;;;;;7.77;5.27;;;;;;;16.73;99.49;98039.78;6164597;28;20302;-38
2023/06/22 05:00:56;;;;;;;7.30;5.03;;;;;;;16.80;99.49;98044.91;6168803;28;20237;-38
2023/06/22 05:04:00;;;;;;;8.40;4.73;;;;;;;16.89;99.12;98054.00;6147625;28;20230;-39
2023/06/22 05:07:04;;;;;;;5.20;4.70;;;;;;;16.96;99.00;98048.34;6164584;28;20257;-39
2023/06/22 05:10:06;;;;;;;8.40;6.10;;;;;;;17.02;99.03;98050.75;6162022;28;20232;-39
2023/06/22 05:13:08;;;;;;;9.27;5.07;;;;;;;17.10;98.55;98052.09;6148462;28;20251;-39
2023/06/22 05:16:11;;;;;;;10.23;4.90;;;;;;;17.20;98.87;98048.53;6167906;28;20235;-38
2023/06/22 05:19:13;;;;;;;8.47;5.30;;;;;;;17.26;98.45;98045.53;6167403;28;20239;-39
2023/06/22 05:22:15;;;;;;;5.57;4.43;;;;;;;17.34;98.12;98048.72;6166852;28;20264;-38
2023/06/22 05:25:18;;;;;;;5.33;3.87;;;;;;;17.41;98.05;98049.25;6166790;28;20228;-38
2023/06/22 05:28:22;;;;;;;5.00;4.20;;;;;;;17.51;98.26;98051.91;6166081;28;20304;-38
2023/06/22 05:31:25;;;;;;;5.77;4.50;;;;;;;17.59;98.03;98048.63;6165227;28;20273;-38
2023/06/22 05:34:27;;;;;;;5.97;3.90;;;;;;;17.67;97.64;98048.03;6165680;28;20241;-38
2023/06/22 05:37:30;;;;;;;6.30;4.43;;;;;;;17.67;97.69;98034.56;6166410;28;20618;-38
2023/06/22 05:40:32;;;;;;;6.70;4.23;;;;;;;17.87;97.11;98049.00;6166246;28;20945;-38
2023/06/22 05:43:34;;;;;;;4.10;3.70;;;;;;;17.78;97.10;98024.53;6163740;28;20585;-39
2023/06/22 05:46:39;;;;;;;6.83;4.40;;;;;;;18.08;96.98;98055.91;6167605;28;20915;-39
2023/06/22 05:49:41;;;;;;;6.53;3.70;;;;;;;18.19;96.24;98059.31;6153225;28;20723;-39
2023/06/22 05:52:43;;;;;;;5.73;4.80;;;;;;;18.27;96.48;98054.13;6170745;28;20233;-38
2023/06/22 05:55:46;;;;;;;6.83;4.70;;;;;;;18.41;95.93;98053.44;6170364;28;20249;-39
2023/06/22 05:58:48;;;;;;;6.50;3.90;;;;;;;18.54;95.88;98059.00;6172403;28;20715;-39
2023/06/22 06:01:50;;;;;;;7.63;4.50;;;;;;;18.66;95.17;98057.81;6171219;28;20738;-39
2023/06/22 06:04:54;;;;;;;6.90;4.50;;;;;;;18.77;95.41;98060.16;6147480;28;20230;-39
2023/06/22 06:07:56;;;;;;;7.40;4.77;;;;;;;18.90;94.91;98063.25;6142176;28;20240;-39
2023/06/22 06:10:58;;;;;;;6.53;3.93;;;;;;;19.02;94.96;98064.50;6141636;28;20240;-38
2023/06/22 06:14:01;;;;;;;10.10;4.27;;;;;;;19.10;93.69;98054.94;6143402;28;20715;-39
2023/06/22 06:17:03;;;;;;;6.77;4.80;;;;;;;19.31;93.54;98050.91;6138857;28;20737;-39
2023/06/22 06:20:07;;;;;;;6.63;4.03;;;;;;;19.47;93.18;98054.22;6147014;28;20226;-38
2023/06/22 06:23:09;;;;;;;5.33;4.30;;;;;;;19.64;92.87;98069.16;6141659;28;20233;-39
2023/06/22 06:26:11;;;;;;;9.60;5.50;;;;;;;19.81;91.80;98056.75;6145238;28;20735;-39
2023/06/22 06:29:16;;;;;;;6.73;4.47;;;;;;;19.99;91.74;98057.84;6145035;28;20734;-38
2023/06/22 06:32:18;;;;;;;8.03;4.90;;;;;;;20.21;90.96;98051.81;6144419;28;20278;-39
2023/06/22 06:35:21;;;;;;;8.07;4.70;;;;;;;20.33;90.08;98054.88;6140342;28;20693;-38
2023/06/22 06:38:23;;;;;;;6.03;4.43;;;;;;;20.57;89.15;98049.34;6141577;28;20237;-38
2023/06/22 06:41:25;;;;;;;8.43;4.67;;;;;;;20.76;87.83;98048.50;6142387;28;20723;-39
2023/06/22 06:44:27;;;;;;;8.53;5.33;;;;;;;20.90;86.88;98043.09;6143199;28;20307;-39
2023/06/22 06:47:29;;;;;;;8.00;4.90;;;;;;;20.92;85.48;98024.63;6140037;28;20238;-39
2023/06/22 06:50:32;;;;;;;9.70;4.23;;;;;;;21.17;85.12;98037.66;6143096;28;20292;-39
2023/06/22 06:53:36;;;;;;;6.33;4.40;;;;;;;21.31;84.05;98043.09;6141150;28;20664;-39
2023/06/22 06:56:38;;;;;;;9.60;5.27;;;;;;;21.48;81.18;98045.22;6142679;28;20238;-39
2023/06/22 06:59:40;;;;;;;15.10;6.33;;;;;;;21.76;76.31;98045.94;6142780;28;20218;-39
2023/06/22 07:02:44;;;;;;;12.10;5.40;;;;;;;22.02;76.89;98043.44;6147265;28;20234;-39
2023/06/22 07:05:46;;;;;;;7.70;4.10;;;;;;;22.06;78.20;98041.72;6165444;28;20245;-39
2023/06/22 07:08:48;;;;;;;9.83;5.07;;;;;;;22.12;76.26;98037.81;6164474;28;20265;-39
2023/06/22 07:11:50;;;;;;;13.07;5.33;;;;;;;22.28;75.18;98040.97;6152911;28;20241;-39
2023/06/22 07:14:53;;;;;;;9.33;4.60;;;;;;;22.36;74.72;98015.75;6171105;28;20627;-39
2023/06/22 07:17:55;;;;;;;11.30;5.90;;;;;;;22.70;72.90;98039.59;6164132;28;20288;-39
2023/06/22 07:20:58;;;;;;;8.87;5.77;;;;;;;22.91;70.00;98029.81;6169113;28;20765;-39
2023/06/22 07:24:00;;;;;;;9.80;5.63;;;;;;;23.05;69.48;98026.97;6168911;28;20722;-39
2023/06/22 07:27:03;;;;;;;8.50;4.57;;;;;;;23.09;72.35;98027.16;6166376;28;20226;-39
2023/06/22 07:30:06;;;;;;;10.88;4.72;;;;;;;23.02;72.72;98021.41;6169447;28;20563;-39
2023/06/22 07:33:08;;;;;;;11.10;4.67;;;;;;;23.10;73.91;98035.00;6169329;28;20248;-40
2023/06/22 07:36:11;;;;;;;10.23;5.10;;;;;;;23.19;73.12;98035.03;6171530;28;20245;-40
2023/06/22 07:39:14;;;;;;;13.43;5.88;;;;;;;23.20;72.74;98036.63;6168449;28;20232;-39
2023/06/22 07:42:18;;;;;;;10.40;5.63;;;;;;;23.27;70.95;98026.09;6167210;28;20221;-39
2023/06/22 07:45:21;;;;;;;11.05;5.32;;;;;;;23.38;73.07;98040.19;6156958;28;20706;-39
2023/06/22 07:48:23;;;;;;;11.82;6.03;;;;;;;23.50;70.65;98042.31;6168105;28;20230;-39
2023/06/22 07:51:25;;;;;;;13.10;7.15;;;;;;;23.65;69.62;98031.00;6165443;28;20613;-39
2023/06/22 07:54:27;;;;;;;14.02;7.25;;;;;;;23.79;68.90;98028.94;6166759;28;20229;-39
2023/06/22 07:57:33;;;;;;;9.27;6.65;;;;;;;23.95;68.85;98037.41;6168528;28;20233;-40
2023/06/22 08:00:36;;;;;;;14.65;7.88;;;;;;;24.06;66.63;98035.16;6167815;28;20221;-40
2023/06/22 08:03:39;;;;;;;20.08;8.48;;;;;;;24.17;66.31;98020.91;6165177;28;20606;-39
2023/06/22 08:06:41;;;;;;;12.95;6.65;;;;;;;24.22;67.60;98028.09;6169870;28;20597;-39
2023/06/22 08:09:47;;;;;;;11.23;6.43;;;;;;;24.22;68.52;98025.38;6169375;28;20229;-40
2023/06/22 08:12:51;;;;;;;14.20;8.60;;;;;;;24.26;67.27;98037.22;6170211;28;20750;-40
2023/06/22 08:15:53;;;;;;;11.85;8.00;;;;;;;24.30;64.98;98032.75;6166558;28;20225;-39
2023/06/22 08:18:56;;;;;;;12.48;8.68;;;;;;;24.34;66.42;98044.59;6168051;28;20717;-39
2023/06/22 08:21:58;;;;;;;13.90;9.18;;;;;;;24.36;65.38;98036.13;6168270;28;20240;-40
2023/06/22 08:25:00;;;;;;;15.10;8.63;;;;;;;24.42;63.56;98027.44;6168260;28;20233;-39
2023/06/22 08:28:03;;;;;;;11.60;7.85;;;;;;;24.66;65.21;98037.81;6166426;28;20615;-40
2023/06/22 08:31:06;;;;;;;11.93;8.07;;;;;;;24.63;66.73;98043.09;6164561;28;20230;-39
2023/06/22 08:34:08;;;;;;;10.57;7.43;;;;;;;24.63;67.11;98038.47;6170758;28;20707;-40
2023/06/22 08:37:10;;;;;;;11.30;7.35;;;;;;;24.71;61.17;98020.47;6169906;28;20233;-39
2023/06/22 08:40:13;;;;;;;12.77;8.48;;;;;;;24.86;60.99;98036.28;6168671;28;20244;-39
2023/06/22 08:43:15;;;;;;;10.10;7.18;;;;;;;24.92;60.92;98024.06;6171917;28;20233;-39
2023/06/22 08:46:21;;;;;;;18.05;8.45;;;;;;;25.04;61.97;98028.06;6165059;28;20308;-39
2023/06/22 08:49:23;;;;;;;11.88;7.90;;;;;;;25.06;61.51;98021.13;6157329;28;20377;-40
2023/06/22 08:52:25;;;;;;;12.38;8.43;;;;;;;25.01;63.39;98025.97;6163469;28;20284;-40
2023/06/22 08:55:28;;;;;;;14.75;8.77;;;;;;;25.16;60.99;98023.53;6169242;28;20233;-39
2023/06/22 08:58:31;;;;;;;10.65;7.65;;;;;;;25.13;60.54;98015.22;6166987;28;20242;-40
2023/06/22 09:01:33;;;;;;;11.98;8.25;;;;;;;25.19;60.08;98017.41;6167770;28;20234;-38
2023/06/22 09:04:35;;;;;;;10.30;7.25;;;;;;;25.29;60.05;98018.97;6168560;28;20245;-39
2023/06/22 09:07:38;;;;;;;14.32;7.93;;;;;;;25.40;61.04;98014.72;6165999;28;20319;-40
2023/06/22 09:10:40;;;;;;;12.45;7.50;;;;;;;25.41;59.19;98019.03;6150488;28;20229;-41
2023/06/22 09:13:42;;;;;;;14.57;8.27;;;;;;;25.52;58.94;98026.84;6165843;28;20242;-41
2023/06/22 09:16:44;;;;;;;13.20;8.38;;;;;;;25.45;60.45;98006.34;6165604;28;20776;-40
2023/06/22 09:19:47;;;;;;;13.77;7.43;;;;;;;25.60;57.68;98013.16;6163233;28;20391;-40
2023/06/22 09:22:49;;;;;;;12.48;7.00;;;;;;;25.80;56.99;98019.75;6170309;28;20756;-40
2023/06/22 09:25:51;;;;;;;11.90;6.63;;;;;;;25.77;60.21;98012.25;6167341;28;20242;-40
2023/06/22 09:28:54;;;;;;;10.50;6.38;;;;;;;25.80;59.60;98010.78;6166403;28;20245;-40
2023/06/22 09:31:56;;;;;;;14.55;6.75;;;;;;;25.94;59.26;98020.28;6164108;28;20245;-39
2023/06/22 09:34:58;;;;;;;9.27;6.15;;;;;;;25.99;58.09;98000.19;6164226;28;20232;-40
2023/06/22 09:38:00;;;;;;;10.13;6.38;;;;;;;25.99;58.62;98016.56;6164881;28;20345;-40
2023/06/22 09:41:03;;;;;;;9.55;6.72;;;;;;;25.90;57.84;97994.00;6163393;28;20808;-40
2023/06/22 09:44:05;;;;;;;9.10;6.93;;;;;;;26.01;59.46;98010.75;6166239;28;20258;-39
2023/06/22 09:47:07;;;;;;;13.25;5.90;;;;;;;26.17;57.10;98000.84;6167463;28;20776;-40
2023/06/22 09:50:09;;;;;;;11.70;5.72;;;;;;;26.23;55.85;98000.28;6160522;28;20229;-39
2023/06/22 09:53:12;;;;;;;6.55;5.38;;;;;;;26.24;56.79;97995.59;6165837;28;20581;-40
2023/06/22 09:56:15;;;;;;;8.40;5.82;;;;;;;26.29;58.44;97997.31;6166927;28;20253;-41
2023/06/22 09:59:17;;;;;;;12.35;5.82;;;;;;;26.33;61.73;97993.59;6165943;28;20240;-40
2023/06/22 10:02:20;;;;;;;8.18;5.35;;;;;;;26.33;62.29;97995.53;6166430;28;20379;-40
2023/06/22 10:05:22;;;;;;;11.00;5.57;;;;;;;26.45;60.03;97982.72;6165493;28;20244;-40
2023/06/22 10:08:25;;;;;;;6.10;5.38;;;;;;;26.59;61.57;97995.25;6167500;28;20749;-40
2023/06/22 10:11:30;;;;;;;9.48;5.80;;;;;;;26.53;63.39;97974.78;6166039;28;20229;-39
2023/06/22 10:14:32;;;;;;;11.43;5.70;;;;;;;26.60;63.67;97997.69;6164565;28;20230;-39
2023/06/22 10:17:34;;;;;;;9.38;6.25;;;;;;;26.76;59.52;97997.81;6166929;28;20286;-40
2023/06/22 10:20:36;;;;;;;9.38;5.85;;;;;;;26.73;57.67;97988.34;6166737;28;20231;-40
2023/06/22 10:23:38;;;;;;;7.53;5.55;;;;;;;26.67;60.54;97967.84;6158717;28;20233;-40
2023/06/22 10:26:41;;;;;;;9.65;4.88;;;;;;;26.93;54.85;97986.63;6166246;28;20723;-39
2023/06/22 10:29:44;;;;;;;7.47;4.20;;;;;;;27.03;53.05;97982.66;6163615;28;20233;-40
2023/06/22 10:32:46;;;;;;;8.40;4.45;;;;;;;26.89;54.92;97982.19;6162613;28;20264;-40
2023/06/22 10:35:48;;;;;;;6.75;4.05;;;;;;;26.89;54.39;97977.53;6165086;28;20729;-40
2023/06/22 10:38:52;;;;;;;7.03;3.67;;;;;;;26.95;55.69;97984.38;6168064;28;20240;-40
2023/06/22 10:41:55;;;;;;;5.78;3.67;;;;;;;27.00;56.10;97980.63;6166305;28;20241;-39
2023/06/22 10:44:58;;;;;;;9.02;4.32;;;;;;;27.01;59.85;97985.75;6152019;28;20310;-40
2023/06/22 10:48:00;;;;;;;8.65;4.30;;;;;;;26.99;55.65;97977.09;6170503;28;20319;-41
2023/06/22 10:51:02;;;;;;;7.13;4.32;;;;;;;26.98;55.05;97971.94;6170027;28;20303;-41
2023/06/22 10:54:04;;;;;;;5.63;4.10;;;;;;;27.07;54.17;97966.38;6173025;28;20729;-40
2023/06/22 10:57:06;;;;;;;6.47;4.45;;;;;;;27.13;53.46;97970.47;6169554;28;20217;-40
2023/06/22 11:00:10;;;;;;;6.97;3.78;;;;;;;27.29;52.49;97968.66;6170945;28;20222;-40
2023/06/22 11:03:14;;;;;;;8.43;3.70;;;;;;;27.23;54.78;97962.59;6170801;28;20230;-40
2023/06/22 11:06:16;;;;;;;11.13;4.40;;;;;;;27.19;54.99;97952.69;6168826;28;20214;-40
2023/06/22 11:09:21;;;;;;;7.15;3.97;;;;;;;27.20;54.58;97954.31;6170401;28;20227;-40
2023/06/22 11:12:29;;;;;;;7.72;4.07;;;;;;;27.21;55.48;97940.28;6171428;28;20301;-40
2023/06/22 11:15:31;;;;;;;10.27;3.80;;;;;;;27.21;55.48;97943.00;6173508;28;20597;-40
2023/06/22 11:18:33;;;;;;;9.38;4.03;;;;;;;27.30;54.80;97939.38;6173676;28;20882;-41
2023/06/22 11:21:35;;;;;;;5.50;3.83;;;;;;;27.38;54.83;97939.22;6164216;28;20237;-40
2023/06/22 11:24:38;;;;;;;8.38;4.00;;;;;;;27.47;53.18;97936.34;6168093;28;20222;-40
2023/06/22 11:27:40;;;;;;;8.48;4.13;;;;;;;27.52;53.20;97934.16;6171545;28;20232;-40
2023/06/22 11:30:42;;;;;;;10.15;4.30;;;;;;;27.62;54.13;97929.34;6168050;28;20615;-40
2023/06/22 11:33:48;;;;;;;6.57;3.95;;;;;;;27.59;52.81;97933.59;6168540;28;20909;-40
2023/06/22 11:36:50;;;;;;;6.65;4.28;;;;;;;27.61;53.52;97934.00;6168999;28;20221;-40
2023/06/22 11:39:54;;;;;;;8.10;4.50;;;;;;;27.51;53.77;97912.63;6150248;28;20231;-41
2023/06/22 11:43:08;;;;;;;7.82;4.68;;;;;;;27.67;53.75;97940.03;6162735;28;20243;-40
2023/06/22 11:46:10;;;;;;;6.55;4.50;;;;;;;27.72;53.27;97939.81;6168226;28;20612;-39
2023/06/22 11:49:12;;;;;;;7.07;4.70;;;;;;;27.72;52.06;97937.09;6170901;28;20375;-40
2023/06/22 11:52:14;;;;;;;8.27;4.35;;;;;;;27.69;52.45;97929.56;6165863;28;20237;-40
2023/06/22 11:55:17;;;;;;;8.57;4.28;;;;;;;27.75;52.69;97926.25;6169556;28;20702;-39
2023/06/22 11:58:19;;;;;;;9.43;4.35;;;;;;;27.81;53.96;97921.31;6170105;28;20232;-41
2023/06/22 12:01:21;;;;;;;8.32;4.32;;;;;;;27.85;53.54;97922.22;6166601;28;20324;-39
2023/06/22 12:04:23;;;;;;;8.07;4.75;;;;;;;27.97;53.04;97916.66;6167764;28;20249;-39
2023/06/22 12:07:26;;;;;;;9.73;4.75;;;;;;;27.98;51.87;97914.72;6168864;28;20225;-40
2023/06/22 12:10:28;;;;;;;10.93;4.60;;;;;;;28.07;53.53;97918.09;6169297;28;20236;-40
2023/06/22 12:13:31;;;;;;;9.63;4.80;;;;;;;28.07;52.77;97912.59;6168620;28;20324;-39
2023/06/22 12:16:33;;;;;;;11.20;5.30;;;;;;;28.14;52.21;97914.75;6167170;28;20526;-40
2023/06/22 12:19:35;;;;;;;7.43;4.45;;;;;;;28.34;53.04;97916.47;6167696;28;20232;-40
2023/06/22 12:22:38;;;;;;;12.20;5.10;;;;;;;28.47;53.39;97914.44;6169721;28;20710;-40
2023/06/22 12:25:40;;;;;;;11.85;4.95;;;;;;;28.39;52.96;97902.53;6168054;28;20229;-40
2023/06/22 12:28:42;;;;;;;13.50;5.30;;;;;;;28.32;51.59;97906.97;6167609;28;20233;-40
2023/06/22 12:31:44;;;;;;;8.18;4.53;;;;;;;28.39;52.42;97912.69;6169426;28;20236;-42
2023/06/22 12:34:46;;;;;;;6.13;4.63;;;;;;;28.52;53.74;97898.53;6168145;28;20260;-40
2023/06/22 12:37:49;;;;;;;7.72;4.43;;;;;;;28.68;54.42;97903.22;6148360;28;20404;-40
2023/06/22 12:40:51;;;;;;;7.63;4.68;;;;;;;28.73;54.55;97878.28;6168084;28;20239;-40
2023/06/22 12:43:53;;;;;;;8.65;5.50;;;;;;;28.89;52.67;97898.22;6166678;28;20232;-40
2023/06/22 12:46:55;;;;;;;7.05;5.50;;;;;;;28.80;51.24;97887.44;6168457;28;20229;-40
2023/06/22 12:49:57;;;;;;;9.07;4.70;;;;;;;28.87;52.05;97886.81;6167092;28;20746;-40
2023/06/22 12:53:02;;;;;;;11.27;5.22;;;;;;;28.90;50.10;97888.84;6168252;28;20232;-40
2023/06/22 12:56:04;;;;;;;10.80;4.88;;;;;;;28.82;51.34;97876.13;6167007;28;20268;-40
2023/06/22 12:59:06;;;;;;;12.82;5.30;;;;;;;28.83;53.12;97880.47;6168228;28;20283;-39
2023/06/22 13:02:08;;;;;;;9.38;5.38;;;;;;;28.65;52.96;97879.25;6164534;28;20237;-39
2023/06/22 13:05:10;;;;;;;7.20;5.03;;;;;;;28.49;53.88;97874.56;6167602;28;20605;-40
2023/06/22 13:08:13;;;;;;;9.35;5.70;;;;;;;28.52;54.90;97873.06;6168413;28;20264;-40
2023/06/22 13:11:15;;;;;;;9.75;5.05;;;;;;;28.44;53.40;97877.59;6167541;28;20233;-40
2023/06/22 13:14:17;;;;;;;8.38;4.93;;;;;;;28.40;54.61;97865.75;6168407;28;20247;-39
2023/06/22 13:17:20;;;;;;;10.48;5.75;;;;;;;28.40;52.27;97849.28;6165698;28;20731;-40
2023/06/22 13:20:22;;;;;;;10.30;5.22;;;;;;;28.49;53.03;97857.34;6165122;28;20614;-40
2023/06/22 13:23:25;;;;;;;12.50;5.47;;;;;;;28.38;53.12;97857.09;6163931;28;20358;-40
2023/06/22 13:26:28;;;;;;;9.55;5.35;;;;;;;28.38;55.67;97851.59;6166101;28;20719;-40
2023/06/22 13:29:31;;;;;;;9.93;5.03;;;;;;;28.35;56.85;97846.81;6167567;28;20754;-40
2023/06/22 13:32:33;;;;;;;11.05;5.47;;;;;;;28.39;54.21;97842.22;6166025;28;20268;-40
2023/06/22 13:35:35;;;;;;;10.32;5.35;;;;;;;28.60;55.70;97832.91;6146681;28;20221;-40
2023/06/22 13:38:40;;;;;;;9.55;5.55;;;;;;;28.54;55.22;97838.66;6166213;28;20625;-40
2023/06/22 13:41:43;;;;;;;13.32;5.78;;;;;;;28.48;56.71;97839.31;6166003;28;20232;-40
2023/06/22 13:44:46;;;;;;;9.63;5.50;;;;;;;28.44;53.08;97833.75;6164621;28;20240;-40
2023/06/22 13:47:48;;;;;;;8.13;5.55;;;;;;;28.41;54.23;97822.69;6165759;28;20320;-40
2023/06/22 13:50:50;;;;;;;8.70;5.45;;;;;;;28.43;56.80;97832.16;6166410;28;20380;-40
2023/06/22 13:53:53;;;;;;;8.63;6.10;;;;;;;28.47;56.14;97829.47;6167402;28;20246;-40
2023/06/22 13:56:55;;;;;;;11.82;5.57;;;;;;;28.41;56.95;97834.44;6164860;28;20222;-39
2023/06/22 13:59:57;;;;;;;8.75;5.57;;;;;;;28.47;57.23;97835.78;6167727;28;20232;-40
2023/06/22 14:02:59;;;;;;;10.63;5.75;;;;;;;28.44;56.88;97822.78;6168405;28;20647;-41
2023/06/22 14:06:01;;;;;;;9.13;6.35;;;;;;;28.60;54.31;97822.75;6167105;28;20379;-41
2023/06/22 14:09:03;;;;;;;7.78;6.13;;;;;;;28.62;54.76;97823.19;6166843;28;20625;-40
2023/06/22 14:12:07;;;;;;;11.48;5.70;;;;;;;28.42;56.64;97794.91;6167220;28;20606;-39
2023/06/22 14:15:09;;;;;;;11.82;5.72;;;;;;;28.53;56.72;97809.69;6169356;28;20234;-40
2023/06/22 14:18:11;;;;;;;11.00;6.82;;;;;;;28.49;57.26;97808.00;6173295;28;20220;-40
2023/06/22 14:21:13;;;;;;;11.52;6.07;;;;;;;28.44;57.61;97800.84;6172426;28;20234;-40